Terminal Aerodrome Forecast
Issued by NWS

Current Version | Previous Version | Graphics & Text | Print | Product List | Glossary On
Versions: 1 2 3 4 5 6 7 8 9 10 11 12 13 14 15 16 17 18 19 20 21 22
000
FTUS41 KILN 252300
TAFLUK
TAF
KLUK 252339Z 2600/2624 20004KT P6SM BKN120
     FM261600 22010KT P6SM FEW030 SCT080 BKN250
     FM262100 23009KT P6SM VCSH SCT030 BKN250=

USA.gov is the U.S. government's official web portal to all federal, state and local government web resources and services.